sensor_id;sensor_type;location;lat;lon;timestamp;P1;durP1;ratioP1;P2;durP2;ratioP2
39066;SDS011;24821;51.988;6.020;2023-06-14T00:00:38;4.70;;;2.58;;
39066;SDS011;24821;51.988;6.020;2023-06-14T00:03:07;2.83;;;2.53;;
39066;SDS011;24821;51.988;6.020;2023-06-14T00:05:36;3.58;;;1.80;;
39066;SDS011;24821;51.988;6.020;2023-06-14T00:08:08;3.50;;;2.53;;
39066;SDS011;24821;51.988;6.020;2023-06-14T00:10:34;4.80;;;2.10;;
39066;SDS011;24821;51.988;6.020;2023-06-14T00:13:04;3.28;;;2.55;;
39066;SDS011;24821;51.988;6.020;2023-06-14T00:15:33;7.22;;;2.33;;
39066;SDS011;24821;51.988;6.020;2023-06-14T00:17:58;3.28;;;1.88;;
39066;SDS011;24821;51.988;6.020;2023-06-14T00:20:25;3.60;;;2.05;;
39066;SDS011;24821;51.988;6.020;2023-06-14T00:22:51;2.65;;;1.90;;
39066;SDS011;24821;51.988;6.020;2023-06-14T00:25:17;2.75;;;2.28;;
39066;SDS011;24821;51.988;6.020;2023-06-14T00:27:43;2.97;;;2.22;;
39066;SDS011;24821;51.988;6.020;2023-06-14T00:30:08;2.67;;;2.42;;
39066;SDS011;24821;51.988;6.020;2023-06-14T00:32:34;2.60;;;2.40;;
39066;SDS011;24821;51.988;6.020;2023-06-14T00:35:00;2.42;;;2.15;;
39066;SDS011;24821;51.988;6.020;2023-06-14T00:37:25;2.72;;;2.20;;
39066;SDS011;24821;51.988;6.020;2023-06-14T00:39:51;1.90;;;1.80;;
39066;SDS011;24821;51.988;6.020;2023-06-14T00:42:23;5.10;;;1.75;;
39066;SDS011;24821;51.988;6.020;2023-06-14T00:44:52;1.98;;;1.88;;
39066;SDS011;24821;51.988;6.020;2023-06-14T00:47:18;3.03;;;2.47;;
39066;SDS011;24821;51.988;6.020;2023-06-14T00:49:45;3.50;;;2.25;;
39066;SDS011;24821;51.988;6.020;2023-06-14T00:52:17;1.98;;;1.85;;
39066;SDS011;24821;51.988;6.020;2023-06-14T00:54:43;2.30;;;2.10;;
39066;SDS011;24821;51.988;6.020;2023-06-14T00:57:09;7.00;;;1.80;;
39066;SDS011;24821;51.988;6.020;2023-06-14T00:59:46;2.20;;;1.85;;
39066;SDS011;24821;51.988;6.020;2023-06-14T01:02:12;3.33;;;2.47;;
39066;SDS011;24821;51.988;6.020;2023-06-14T01:04:40;3.22;;;2.25;;
39066;SDS011;24821;51.988;6.020;2023-06-14T01:10:12;3.28;;;2.40;;
39066;SDS011;24821;51.988;6.020;2023-06-14T01:15:30;1.70;;;1.50;;
39066;SDS011;24821;51.988;6.020;2023-06-14T01:17:57;2.80;;;2.50;;
39066;SDS011;24821;51.988;6.020;2023-06-14T01:20:29;3.65;;;1.80;;
39066;SDS011;24821;51.988;6.020;2023-06-14T01:22:56;1.95;;;1.77;;
39066;SDS011;24821;51.988;6.020;2023-06-14T01:25:22;2.58;;;2.10;;
39066;SDS011;24821;51.988;6.020;2023-06-14T01:27:48;9.10;;;2.28;;
39066;SDS011;24821;51.988;6.020;2023-06-14T01:30:15;2.58;;;2.20;;
39066;SDS011;24821;51.988;6.020;2023-06-14T01:32:43;1.83;;;1.73;;
39066;SDS011;24821;51.988;6.020;2023-06-14T01:35:10;3.05;;;2.30;;
39066;SDS011;24821;51.988;6.020;2023-06-14T01:37:35;7.03;;;2.65;;
39066;SDS011;24821;51.988;6.020;2023-06-14T01:40:02;4.72;;;2.17;;
39066;SDS011;24821;51.988;6.020;2023-06-14T01:42:31;1.95;;;1.85;;
39066;SDS011;24821;51.988;6.020;2023-06-14T01:45:00;3.50;;;1.98;;
39066;SDS011;24821;51.988;6.020;2023-06-14T01:47:28;8.13;;;2.50;;
39066;SDS011;24821;51.988;6.020;2023-06-14T01:49:55;3.28;;;1.85;;
39066;SDS011;24821;51.988;6.020;2023-06-14T01:52:20;3.60;;;2.83;;
39066;SDS011;24821;51.988;6.020;2023-06-14T01:54:47;2.03;;;1.90;;
39066;SDS011;24821;51.988;6.020;2023-06-14T01:57:14;3.05;;;2.00;;
39066;SDS011;24821;51.988;6.020;2023-06-14T01:59:40;5.05;;;1.73;;
39066;SDS011;24821;51.988;6.020;2023-06-14T02:02:06;2.03;;;1.92;;
39066;SDS011;24821;51.988;6.020;2023-06-14T02:04:31;1.80;;;1.70;;
39066;SDS011;24821;51.988;6.020;2023-06-14T02:06:57;2.22;;;2.03;;
39066;SDS011;24821;51.988;6.020;2023-06-14T02:09:22;2.13;;;2.03;;
39066;SDS011;24821;51.988;6.020;2023-06-14T02:11:48;4.45;;;2.28;;
39066;SDS011;24821;51.988;6.020;2023-06-14T02:14:14;2.33;;;1.73;;
39066;SDS011;24821;51.988;6.020;2023-06-14T02:16:42;3.75;;;2.47;;
39066;SDS011;24821;51.988;6.020;2023-06-14T02:19:13;1.83;;;1.73;;
39066;SDS011;24821;51.988;6.020;2023-06-14T02:21:42;1.60;;;1.55;;
39066;SDS011;24821;51.988;6.020;2023-06-14T02:24:08;2.55;;;2.35;;
39066;SDS011;24821;51.988;6.020;2023-06-14T02:26:35;2.42;;;2.28;;
39066;SDS011;24821;51.988;6.020;2023-06-14T02:29:02;2.30;;;2.10;;
39066;SDS011;24821;51.988;6.020;2023-06-14T02:31:33;2.70;;;2.50;;
39066;SDS011;24821;51.988;6.020;2023-06-14T02:34:00;2.42;;;2.22;;
39066;SDS011;24821;51.988;6.020;2023-06-14T02:36:26;6.18;;;2.78;;
39066;SDS011;24821;51.988;6.020;2023-06-14T02:38:52;3.10;;;2.03;;
39066;SDS011;24821;51.988;6.020;2023-06-14T02:41:19;2.38;;;2.28;;
39066;SDS011;24821;51.988;6.020;2023-06-14T02:43:44;2.40;;;2.20;;
39066;SDS011;24821;51.988;6.020;2023-06-14T02:46:10;2.45;;;2.30;;
39066;SDS011;24821;51.988;6.020;2023-06-14T02:48:36;2.80;;;2.42;;
39066;SDS011;24821;51.988;6.020;2023-06-14T02:51:02;2.45;;;2.15;;
39066;SDS011;24821;51.988;6.020;2023-06-14T02:53:27;3.78;;;2.70;;
39066;SDS011;24821;51.988;6.020;2023-06-14T02:55:53;2.45;;;2.35;;
39066;SDS011;24821;51.988;6.020;2023-06-14T02:58:20;2.78;;;2.50;;
39066;SDS011;24821;51.988;6.020;2023-06-14T03:00:46;2.17;;;2.03;;
39066;SDS011;24821;51.988;6.020;2023-06-14T03:03:11;2.22;;;2.13;;
39066;SDS011;24821;51.988;6.020;2023-06-14T03:05:43;2.92;;;2.65;;
39066;SDS011;24821;51.988;6.020;2023-06-14T03:08:14;4.00;;;2.10;;
39066;SDS011;24821;51.988;6.020;2023-06-14T03:10:42;2.53;;;2.35;;
39066;SDS011;24821;51.988;6.020;2023-06-14T03:13:08;2.15;;;2.05;;
39066;SDS011;24821;51.988;6.020;2023-06-14T03:15:35;3.95;;;2.53;;
39066;SDS011;24821;51.988;6.020;2023-06-14T03:18:01;2.33;;;2.20;;
39066;SDS011;24821;51.988;6.020;2023-06-14T03:20:28;2.70;;;2.50;;
39066;SDS011;24821;51.988;6.020;2023-06-14T03:22:55;2.47;;;2.28;;
39066;SDS011;24821;51.988;6.020;2023-06-14T03:25:21;3.42;;;2.35;;
39066;SDS011;24821;51.988;6.020;2023-06-14T03:27:47;1.92;;;1.83;;
39066;SDS011;24821;51.988;6.020;2023-06-14T03:30:12;2.90;;;2.70;;
39066;SDS011;24821;51.988;6.020;2023-06-14T03:32:38;2.58;;;2.13;;
39066;SDS011;24821;51.988;6.020;2023-06-14T03:35:04;2.58;;;2.30;;
39066;SDS011;24821;51.988;6.020;2023-06-14T03:37:30;2.00;;;1.90;;
39066;SDS011;24821;51.988;6.020;2023-06-14T03:39:56;2.13;;;1.98;;
39066;SDS011;24821;51.988;6.020;2023-06-14T03:42:21;2.45;;;2.30;;
39066;SDS011;24821;51.988;6.020;2023-06-14T03:44:47;2.20;;;2.00;;
39066;SDS011;24821;51.988;6.020;2023-06-14T03:47:12;4.38;;;2.20;;
39066;SDS011;24821;51.988;6.020;2023-06-14T03:49:38;2.53;;;2.33;;
39066;SDS011;24821;51.988;6.020;2023-06-14T03:52:04;8.57;;;1.92;;
39066;SDS011;24821;51.988;6.020;2023-06-14T03:54:30;2.17;;;2.08;;
39066;SDS011;24821;51.988;6.020;2023-06-14T03:56:57;3.38;;;2.28;;
39066;SDS011;24821;51.988;6.020;2023-06-14T03:59:23;2.38;;;1.98;;
39066;SDS011;24821;51.988;6.020;2023-06-14T04:01:50;2.67;;;2.47;;
39066;SDS011;24821;51.988;6.020;2023-06-14T04:04:16;6.78;;;3.15;;
39066;SDS011;24821;51.988;6.020;2023-06-14T04:06:42;2.92;;;2.30;;
39066;SDS011;24821;51.988;6.020;2023-06-14T04:09:08;2.30;;;2.13;;
39066;SDS011;24821;51.988;6.020;2023-06-14T04:11:33;4.38;;;2.47;;
39066;SDS011;24821;51.988;6.020;2023-06-14T04:13:59;2.30;;;2.10;;
39066;SDS011;24821;51.988;6.020;2023-06-14T04:16:26;3.28;;;2.30;;
39066;SDS011;24821;51.988;6.020;2023-06-14T04:18:53;2.30;;;2.10;;
39066;SDS011;24821;51.988;6.020;2023-06-14T04:21:23;2.22;;;2.03;;
39066;SDS011;24821;51.988;6.020;2023-06-14T04:23:48;2.42;;;2.33;;
39066;SDS011;24821;51.988;6.020;2023-06-14T04:26:17;2.10;;;2.00;;
39066;SDS011;24821;51.988;6.020;2023-06-14T04:28:44;2.63;;;2.47;;
39066;SDS011;24821;51.988;6.020;2023-06-14T04:31:10;2.70;;;2.50;;
39066;SDS011;24821;51.988;6.020;2023-06-14T04:33:36;2.10;;;2.00;;
39066;SDS011;24821;51.988;6.020;2023-06-14T04:36:08;2.80;;;2.60;;
39066;SDS011;24821;51.988;6.020;2023-06-14T04:38:38;2.50;;;2.35;;
39066;SDS011;24821;51.988;6.020;2023-06-14T04:41:04;3.58;;;2.45;;
39066;SDS011;24821;51.988;6.020;2023-06-14T04:43:30;2.50;;;2.30;;
39066;SDS011;24821;51.988;6.020;2023-06-14T04:46:01;2.28;;;2.17;;
39066;SDS011;24821;51.988;6.020;2023-06-14T04:48:28;2.83;;;2.50;;
39066;SDS011;24821;51.988;6.020;2023-06-14T04:50:53;2.55;;;2.45;;
39066;SDS011;24821;51.988;6.020;2023-06-14T04:53:19;2.88;;;2.60;;
39066;SDS011;24821;51.988;6.020;2023-06-14T04:55:46;2.72;;;2.53;;
39066;SDS011;24821;51.988;6.020;2023-06-14T04:58:13;2.50;;;2.40;;
39066;SDS011;24821;51.988;6.020;2023-06-14T05:00:38;2.28;;;2.17;;
39066;SDS011;24821;51.988;6.020;2023-06-14T05:03:04;2.80;;;2.60;;
39066;SDS011;24821;51.988;6.020;2023-06-14T05:05:31;3.25;;;2.53;;
39066;SDS011;24821;51.988;6.020;2023-06-14T05:07:57;2.67;;;2.55;;
39066;SDS011;24821;51.988;6.020;2023-06-14T05:10:22;3.00;;;2.78;;
39066;SDS011;24821;51.988;6.020;2023-06-14T05:12:49;3.70;;;2.55;;
39066;SDS011;24821;51.988;6.020;2023-06-14T05:15:15;2.90;;;2.70;;
39066;SDS011;24821;51.988;6.020;2023-06-14T05:17:41;5.45;;;2.55;;
39066;SDS011;24821;51.988;6.020;2023-06-14T05:20:07;2.63;;;2.38;;
39066;SDS011;24821;51.988;6.020;2023-06-14T05:22:35;2.47;;;2.38;;
39066;SDS011;24821;51.988;6.020;2023-06-14T05:25:00;6.63;;;2.47;;
39066;SDS011;24821;51.988;6.020;2023-06-14T05:27:26;5.88;;;3.03;;
39066;SDS011;24821;51.988;6.020;2023-06-14T05:29:52;2.55;;;2.40;;
39066;SDS011;24821;51.988;6.020;2023-06-14T05:32:20;5.95;;;3.15;;
39066;SDS011;24821;51.988;6.020;2023-06-14T05:34:46;2.47;;;2.38;;
39066;SDS011;24821;51.988;6.020;2023-06-14T05:37:11;3.05;;;2.75;;
39066;SDS011;24821;51.988;6.020;2023-06-14T05:39:38;3.10;;;2.80;;
39066;SDS011;24821;51.988;6.020;2023-06-14T05:42:03;3.30;;;3.00;;
39066;SDS011;24821;51.988;6.020;2023-06-14T05:44:29;6.22;;;3.03;;
39066;SDS011;24821;51.988;6.020;2023-06-14T05:46:55;2.90;;;2.70;;
39066;SDS011;24821;51.988;6.020;2023-06-14T05:49:20;2.65;;;2.45;;
39066;SDS011;24821;51.988;6.020;2023-06-14T05:51:46;3.05;;;2.85;;
39066;SDS011;24821;51.988;6.020;2023-06-14T05:54:11;4.25;;;2.55;;
39066;SDS011;24821;51.988;6.020;2023-06-14T05:56:37;2.90;;;2.70;;
39066;SDS011;24821;51.988;6.020;2023-06-14T05:59:02;2.70;;;2.50;;
39066;SDS011;24821;51.988;6.020;2023-06-14T06:01:28;2.97;;;2.78;;
39066;SDS011;24821;51.988;6.020;2023-06-14T06:03:53;7.95;;;3.05;;
39066;SDS011;24821;51.988;6.020;2023-06-14T06:06:19;2.70;;;2.50;;
39066;SDS011;24821;51.988;6.020;2023-06-14T06:08:45;3.38;;;3.10;;
39066;SDS011;24821;51.988;6.020;2023-06-14T06:11:11;2.72;;;2.53;;
39066;SDS011;24821;51.988;6.020;2023-06-14T06:13:36;4.40;;;2.90;;
39066;SDS011;24821;51.988;6.020;2023-06-14T06:16:04;2.78;;;2.60;;
39066;SDS011;24821;51.988;6.020;2023-06-14T06:18:29;3.38;;;3.03;;
39066;SDS011;24821;51.988;6.020;2023-06-14T06:20:55;2.33;;;2.22;;
39066;SDS011;24821;51.988;6.020;2023-06-14T06:23:20;3.45;;;2.72;;
39066;SDS011;24821;51.988;6.020;2023-06-14T06:25:46;2.65;;;2.45;;
39066;SDS011;24821;51.988;6.020;2023-06-14T06:28:12;2.88;;;2.67;;
39066;SDS011;24821;51.988;6.020;2023-06-14T06:30:38;2.28;;;2.08;;
39066;SDS011;24821;51.988;6.020;2023-06-14T06:33:03;2.70;;;2.35;;
39066;SDS011;24821;51.988;6.020;2023-06-14T06:35:29;2.55;;;2.40;;
39066;SDS011;24821;51.988;6.020;2023-06-14T06:37:55;5.10;;;2.70;;
39066;SDS011;24821;51.988;6.020;2023-06-14T06:40:21;3.30;;;2.85;;
39066;SDS011;24821;51.988;6.020;2023-06-14T06:42:47;2.22;;;2.03;;
39066;SDS011;24821;51.988;6.020;2023-06-14T06:45:12;2.05;;;1.92;;
39066;SDS011;24821;51.988;6.020;2023-06-14T06:47:38;2.47;;;2.28;;
39066;SDS011;24821;51.988;6.020;2023-06-14T06:50:03;3.70;;;2.58;;
39066;SDS011;24821;51.988;6.020;2023-06-14T06:52:30;2.10;;;2.00;;
39066;SDS011;24821;51.988;6.020;2023-06-14T06:54:56;3.47;;;1.70;;
39066;SDS011;24821;51.988;6.020;2023-06-14T06:57:22;3.95;;;2.13;;
39066;SDS011;24821;51.988;6.020;2023-06-14T06:59:48;1.92;;;1.83;;
39066;SDS011;24821;51.988;6.020;2023-06-14T07:02:14;2.15;;;2.00;;
39066;SDS011;24821;51.988;6.020;2023-06-14T07:04:40;2.47;;;2.00;;
39066;SDS011;24821;51.988;6.020;2023-06-14T07:07:06;2.42;;;2.22;;
39066;SDS011;24821;51.988;6.020;2023-06-14T07:09:31;2.35;;;1.70;;
39066;SDS011;24821;51.988;6.020;2023-06-14T07:11:57;1.80;;;1.70;;
39066;SDS011;24821;51.988;6.020;2023-06-14T07:14:23;4.80;;;1.52;;
39066;SDS011;24821;51.988;6.020;2023-06-14T07:16:49;1.60;;;1.50;;
39066;SDS011;24821;51.988;6.020;2023-06-14T07:19:14;6.10;;;1.95;;
39066;SDS011;24821;51.988;6.020;2023-06-14T07:21:40;1.58;;;1.48;;
39066;SDS011;24821;51.988;6.020;2023-06-14T07:24:06;1.92;;;1.70;;
39066;SDS011;24821;51.988;6.020;2023-06-14T07:26:32;1.85;;;1.75;;
39066;SDS011;24821;51.988;6.020;2023-06-14T07:28:58;9.32;;;2.05;;
39066;SDS011;24821;51.988;6.020;2023-06-14T07:31:24;1.95;;;1.45;;
39066;SDS011;24821;51.988;6.020;2023-06-14T07:33:49;1.50;;;1.40;;
39066;SDS011;24821;51.988;6.020;2023-06-14T07:36:15;6.60;;;1.67;;
39066;SDS011;24821;51.988;6.020;2023-06-14T07:38:42;2.90;;;1.92;;
39066;SDS011;24821;51.988;6.020;2023-06-14T07:41:08;1.35;;;1.25;;
39066;SDS011;24821;51.988;6.020;2023-06-14T07:43:34;1.92;;;1.60;;
39066;SDS011;24821;51.988;6.020;2023-06-14T07:45:59;1.30;;;1.20;;
39066;SDS011;24821;51.988;6.020;2023-06-14T07:48:25;1.63;;;1.35;;
39066;SDS011;24821;51.988;6.020;2023-06-14T07:50:51;0.70;;;0.70;;
39066;SDS011;24821;51.988;6.020;2023-06-14T07:53:16;0.80;;;0.80;;
39066;SDS011;24821;51.988;6.020;2023-06-14T07:55:42;1.38;;;0.90;;
39066;SDS011;24821;51.988;6.020;2023-06-14T07:58:08;1.25;;;1.15;;
39066;SDS011;24821;51.988;6.020;2023-06-14T08:00:34;1.15;;;0.88;;
39066;SDS011;24821;51.988;6.020;2023-06-14T08:02:59;1.75;;;1.27;;
39066;SDS011;24821;51.988;6.020;2023-06-14T08:05:25;1.70;;;1.10;;
39066;SDS011;24821;51.988;6.020;2023-06-14T08:07:51;2.22;;;1.40;;
39066;SDS011;24821;51.988;6.020;2023-06-14T08:10:17;1.10;;;1.00;;
39066;SDS011;24821;51.988;6.020;2023-06-14T08:12:43;1.05;;;1.00;;
39066;SDS011;24821;51.988;6.020;2023-06-14T08:15:09;0.95;;;0.90;;
39066;SDS011;24821;51.988;6.020;2023-06-14T08:17:35;2.03;;;1.63;;
39066;SDS011;24821;51.988;6.020;2023-06-14T08:20:01;1.52;;;1.33;;
39066;SDS011;24821;51.988;6.020;2023-06-14T08:22:28;1.13;;;1.05;;
39066;SDS011;24821;51.988;6.020;2023-06-14T08:24:56;1.20;;;1.10;;
39066;SDS011;24821;51.988;6.020;2023-06-14T08:27:22;1.40;;;1.27;;
39066;SDS011;24821;51.988;6.020;2023-06-14T08:29:48;1.52;;;1.00;;
39066;SDS011;24821;51.988;6.020;2023-06-14T08:32:13;0.95;;;0.95;;
39066;SDS011;24821;51.988;6.020;2023-06-14T08:34:39;1.30;;;1.20;;
39066;SDS011;24821;51.988;6.020;2023-06-14T08:37:05;1.23;;;1.13;;
39066;SDS011;24821;51.988;6.020;2023-06-14T08:39:31;1.40;;;1.30;;
39066;SDS011;24821;51.988;6.020;2023-06-14T08:41:57;2.20;;;1.40;;
39066;SDS011;24821;51.988;6.020;2023-06-14T08:44:23;0.98;;;0.90;;
39066;SDS011;24821;51.988;6.020;2023-06-14T08:46:49;1.70;;;0.90;;
39066;SDS011;24821;51.988;6.020;2023-06-14T08:49:17;1.13;;;1.08;;
39066;SDS011;24821;51.988;6.020;2023-06-14T08:51:43;0.90;;;0.90;;
39066;SDS011;24821;51.988;6.020;2023-06-14T08:54:09;2.13;;;0.90;;
39066;SDS011;24821;51.988;6.020;2023-06-14T08:56:40;1.33;;;1.10;;
39066;SDS011;24821;51.988;6.020;2023-06-14T08:59:06;1.33;;;0.90;;
39066;SDS011;24821;51.988;6.020;2023-06-14T09:01:34;0.77;;;0.70;;
39066;SDS011;24821;51.988;6.020;2023-06-14T09:04:02;1.13;;;1.00;;
39066;SDS011;24821;51.988;6.020;2023-06-14T09:06:30;1.00;;;1.00;;
39066;SDS011;24821;51.988;6.020;2023-06-14T09:08:56;2.50;;;1.27;;
39066;SDS011;24821;51.988;6.020;2023-06-14T09:11:23;1.00;;;0.77;;
39066;SDS011;24821;51.988;6.020;2023-06-14T09:13:49;0.82;;;0.82;;
39066;SDS011;24821;51.988;6.020;2023-06-14T09:16:15;0.85;;;0.75;;
39066;SDS011;24821;51.988;6.020;2023-06-14T09:18:42;0.80;;;0.80;;
39066;SDS011;24821;51.988;6.020;2023-06-14T09:21:09;0.70;;;0.70;;
39066;SDS011;24821;51.988;6.020;2023-06-14T09:23:46;1.27;;;0.85;;
39066;SDS011;24821;51.988;6.020;2023-06-14T09:28:44;0.98;;;0.95;;
39066;SDS011;24821;51.988;6.020;2023-06-14T09:31:14;1.92;;;1.33;;
39066;SDS011;24821;51.988;6.020;2023-06-14T09:33:44;1.20;;;1.15;;
39066;SDS011;24821;51.988;6.020;2023-06-14T09:36:15;1.15;;;0.90;;
39066;SDS011;24821;51.988;6.020;2023-06-14T09:38:42;1.40;;;0.70;;
39066;SDS011;24821;51.988;6.020;2023-06-14T09:41:21;3.50;;;1.23;;
39066;SDS011;24821;51.988;6.020;2023-06-14T09:44:00;3.42;;;0.75;;
39066;SDS011;24821;51.988;6.020;2023-06-14T09:46:27;0.68;;;0.60;;
39066;SDS011;24821;51.988;6.020;2023-06-14T09:48:54;0.93;;;0.88;;
39066;SDS011;24821;51.988;6.020;2023-06-14T09:51:24;0.50;;;0.50;;
39066;SDS011;24821;51.988;6.020;2023-06-14T09:53:51;1.58;;;0.88;;
39066;SDS011;24821;51.988;6.020;2023-06-14T09:56:25;2.15;;;1.00;;
39066;SDS011;24821;51.988;6.020;2023-06-14T09:59:02;0.65;;;0.65;;
39066;SDS011;24821;51.988;6.020;2023-06-14T10:01:30;0.52;;;0.52;;
39066;SDS011;24821;51.988;6.020;2023-06-14T10:04:03;0.93;;;0.80;;
39066;SDS011;24821;51.988;6.020;2023-06-14T10:06:31;0.85;;;0.70;;
39066;SDS011;24821;51.988;6.020;2023-06-14T10:09:02;1.15;;;0.65;;
39066;SDS011;24821;51.988;6.020;2023-06-14T10:11:29;0.60;;;0.60;;
39066;SDS011;24821;51.988;6.020;2023-06-14T10:13:55;1.55;;;0.70;;
39066;SDS011;24821;51.988;6.020;2023-06-14T10:16:28;4.38;;;0.73;;
39066;SDS011;24821;51.988;6.020;2023-06-14T10:24:28;0.77;;;0.77;;
39066;SDS011;24821;51.988;6.020;2023-06-14T10:26:58;3.10;;;0.90;;
39066;SDS011;24821;51.988;6.020;2023-06-14T10:29:26;1.10;;;0.73;;
39066;SDS011;24821;51.988;6.020;2023-06-14T10:31:57;1.50;;;0.75;;
39066;SDS011;24821;51.988;6.020;2023-06-14T10:34:27;1.13;;;0.85;;
39066;SDS011;24821;51.988;6.020;2023-06-14T10:37:04;0.63;;;0.60;;
39066;SDS011;24821;51.988;6.020;2023-06-14T10:39:31;1.63;;;1.13;;
39066;SDS011;24821;51.988;6.020;2023-06-14T10:42:05;0.80;;;0.80;;
39066;SDS011;24821;51.988;6.020;2023-06-14T10:44:32;0.75;;;0.75;;
39066;SDS011;24821;51.988;6.020;2023-06-14T10:47:47;1.15;;;0.52;;
39066;SDS011;24821;51.988;6.020;2023-06-14T10:50:09;1.60;;;1.02;;
39066;SDS011;24821;51.988;6.020;2023-06-14T10:52:38;0.75;;;0.75;;
39066;SDS011;24821;51.988;6.020;2023-06-14T10:57:37;1.90;;;0.95;;
39066;SDS011;24821;51.988;6.020;2023-06-14T11:00:28;1.13;;;1.00;;
39066;SDS011;24821;51.988;6.020;2023-06-14T11:05:58;0.80;;;0.80;;
39066;SDS011;24821;51.988;6.020;2023-06-14T11:11:17;0.80;;;0.80;;
39066;SDS011;24821;51.988;6.020;2023-06-14T11:13:46;0.80;;;0.80;;
39066;SDS011;24821;51.988;6.020;2023-06-14T11:16:12;1.23;;;1.00;;
39066;SDS011;24821;51.988;6.020;2023-06-14T11:18:40;1.55;;;1.42;;
39066;SDS011;24821;51.988;6.020;2023-06-14T11:21:06;0.70;;;0.70;;
39066;SDS011;24821;51.988;6.020;2023-06-14T11:23:33;1.45;;;1.02;;
39066;SDS011;24821;51.988;6.020;2023-06-14T11:25:59;3.47;;;1.00;;
39066;SDS011;24821;51.988;6.020;2023-06-14T11:28:35;3.60;;;1.10;;
39066;SDS011;24821;51.988;6.020;2023-06-14T11:31:01;0.93;;;0.93;;
39066;SDS011;24821;51.988;6.020;2023-06-14T11:33:28;1.08;;;1.08;;
39066;SDS011;24821;51.988;6.020;2023-06-14T11:35:53;1.15;;;1.08;;
39066;SDS011;24821;51.988;6.020;2023-06-14T11:38:19;2.75;;;1.42;;
39066;SDS011;24821;51.988;6.020;2023-06-14T11:40:45;1.48;;;1.20;;
39066;SDS011;24821;51.988;6.020;2023-06-14T11:43:10;2.55;;;1.52;;
39066;SDS011;24821;51.988;6.020;2023-06-14T11:45:37;5.65;;;1.20;;
39066;SDS011;24821;51.988;6.020;2023-06-14T11:48:03;1.52;;;1.42;;
39066;SDS011;24821;51.988;6.020;2023-06-14T11:50:28;1.38;;;1.13;;
39066;SDS011;24821;51.988;6.020;2023-06-14T11:52:54;1.45;;;1.38;;
39066;SDS011;24821;51.988;6.020;2023-06-14T11:55:21;1.02;;;1.02;;
39066;SDS011;24821;51.988;6.020;2023-06-14T11:57:47;0.68;;;0.68;;
39066;SDS011;24821;51.988;6.020;2023-06-14T12:00:13;0.65;;;0.65;;
39066;SDS011;24821;51.988;6.020;2023-06-14T12:02:40;0.60;;;0.60;;
39066;SDS011;24821;51.988;6.020;2023-06-14T12:05:07;0.77;;;0.75;;
39066;SDS011;24821;51.988;6.020;2023-06-14T12:07:35;0.90;;;0.90;;
39066;SDS011;24821;51.988;6.020;2023-06-14T12:10:05;2.38;;;1.00;;
39066;SDS011;24821;51.988;6.020;2023-06-14T12:12:36;1.10;;;0.98;;
39066;SDS011;24821;51.988;6.020;2023-06-14T12:15:07;1.02;;;1.02;;
39066;SDS011;24821;51.988;6.020;2023-06-14T12:17:34;0.90;;;0.90;;
39066;SDS011;24821;51.988;6.020;2023-06-14T12:20:13;2.47;;;1.17;;
39066;SDS011;24821;51.988;6.020;2023-06-14T12:22:53;1.17;;;1.08;;
39066;SDS011;24821;51.988;6.020;2023-06-14T12:25:27;1.38;;;1.02;;
39066;SDS011;24821;51.988;6.020;2023-06-14T12:27:58;1.00;;;1.00;;
39066;SDS011;24821;51.988;6.020;2023-06-14T12:30:28;0.60;;;0.60;;
39066;SDS011;24821;51.988;6.020;2023-06-14T12:32:53;1.80;;;1.38;;
39066;SDS011;24821;51.988;6.020;2023-06-14T12:35:19;1.73;;;0.90;;
39066;SDS011;24821;51.988;6.020;2023-06-14T12:37:45;1.30;;;1.02;;
39066;SDS011;24821;51.988;6.020;2023-06-14T12:40:11;2.75;;;0.95;;
39066;SDS011;24821;51.988;6.020;2023-06-14T12:42:37;0.77;;;0.77;;
39066;SDS011;24821;51.988;6.020;2023-06-14T12:45:03;0.90;;;0.90;;
39066;SDS011;24821;51.988;6.020;2023-06-14T12:47:29;2.50;;;1.55;;
39066;SDS011;24821;51.988;6.020;2023-06-14T12:49:54;1.38;;;1.30;;
39066;SDS011;24821;51.988;6.020;2023-06-14T12:52:20;0.75;;;0.75;;
39066;SDS011;24821;51.988;6.020;2023-06-14T12:54:45;0.80;;;0.80;;
39066;SDS011;24821;51.988;6.020;2023-06-14T12:57:11;1.00;;;1.00;;
39066;SDS011;24821;51.988;6.020;2023-06-14T12:59:36;0.90;;;0.90;;
39066;SDS011;24821;51.988;6.020;2023-06-14T13:04:43;1.08;;;0.93;;
39066;SDS011;24821;51.988;6.020;2023-06-14T13:07:09;0.90;;;0.90;;
39066;SDS011;24821;51.988;6.020;2023-06-14T13:09:35;1.30;;;0.90;;
39066;SDS011;24821;51.988;6.020;2023-06-14T13:12:01;2.20;;;1.10;;
39066;SDS011;24821;51.988;6.020;2023-06-14T13:14:27;0.65;;;0.65;;
39066;SDS011;24821;51.988;6.020;2023-06-14T13:16:53;0.90;;;0.90;;
39066;SDS011;24821;51.988;6.020;2023-06-14T13:19:18;1.20;;;1.10;;
39066;SDS011;24821;51.988;6.020;2023-06-14T13:21:44;0.80;;;0.80;;
39066;SDS011;24821;51.988;6.020;2023-06-14T13:24:10;0.90;;;0.90;;
39066;SDS011;24821;51.988;6.020;2023-06-14T13:26:35;0.80;;;0.77;;
39066;SDS011;24821;51.988;6.020;2023-06-14T13:29:01;2.42;;;1.27;;
39066;SDS011;24821;51.988;6.020;2023-06-14T13:31:26;1.17;;;1.17;;
39066;SDS011;24821;51.988;6.020;2023-06-14T13:33:52;0.70;;;0.70;;
39066;SDS011;24821;51.988;6.020;2023-06-14T13:36:17;1.00;;;0.90;;
39066;SDS011;24821;51.988;6.020;2023-06-14T13:38:43;1.27;;;1.10;;
39066;SDS011;24821;51.988;6.020;2023-06-14T13:41:09;0.60;;;0.60;;
39066;SDS011;24821;51.988;6.020;2023-06-14T13:43:34;1.45;;;0.75;;
39066;SDS011;24821;51.988;6.020;2023-06-14T13:46:00;1.20;;;1.00;;
39066;SDS011;24821;51.988;6.020;2023-06-14T13:48:26;0.98;;;0.98;;
39066;SDS011;24821;51.988;6.020;2023-06-14T13:50:51;0.93;;;0.93;;
39066;SDS011;24821;51.988;6.020;2023-06-14T13:53:17;1.17;;;0.93;;
39066;SDS011;24821;51.988;6.020;2023-06-14T13:55:43;1.42;;;0.85;;
39066;SDS011;24821;51.988;6.020;2023-06-14T13:58:08;1.02;;;0.85;;
39066;SDS011;24821;51.988;6.020;2023-06-14T14:00:34;0.93;;;0.93;;
39066;SDS011;24821;51.988;6.020;2023-06-14T14:03:02;1.50;;;0.90;;
39066;SDS011;24821;51.988;6.020;2023-06-14T14:05:28;0.60;;;0.60;;
39066;SDS011;24821;51.988;6.020;2023-06-14T14:07:55;0.90;;;0.90;;
39066;SDS011;24821;51.988;6.020;2023-06-14T14:10:22;0.70;;;0.70;;
39066;SDS011;24821;51.988;6.020;2023-06-14T14:12:49;0.70;;;0.70;;
39066;SDS011;24821;51.988;6.020;2023-06-14T14:15:15;1.38;;;0.82;;
39066;SDS011;24821;51.988;6.020;2023-06-14T14:17:41;0.82;;;0.82;;
39066;SDS011;24821;51.988;6.020;2023-06-14T14:20:07;0.82;;;0.82;;
39066;SDS011;24821;51.988;6.020;2023-06-14T14:22:33;0.80;;;0.80;;
39066;SDS011;24821;51.988;6.020;2023-06-14T14:24:58;0.68;;;0.68;;
39066;SDS011;24821;51.988;6.020;2023-06-14T14:27:24;1.58;;;0.90;;
39066;SDS011;24821;51.988;6.020;2023-06-14T14:29:50;0.80;;;0.80;;
39066;SDS011;24821;51.988;6.020;2023-06-14T14:32:15;0.70;;;0.70;;
39066;SDS011;24821;51.988;6.020;2023-06-14T14:34:41;0.70;;;0.70;;
39066;SDS011;24821;51.988;6.020;2023-06-14T14:37:07;1.13;;;1.13;;
39066;SDS011;24821;51.988;6.020;2023-06-14T14:39:32;1.65;;;1.15;;
39066;SDS011;24821;51.988;6.020;2023-06-14T14:41:58;0.73;;;0.73;;
39066;SDS011;24821;51.988;6.020;2023-06-14T14:44:23;2.35;;;1.27;;
39066;SDS011;24821;51.988;6.020;2023-06-14T14:46:49;3.33;;;1.15;;
39066;SDS011;24821;51.988;6.020;2023-06-14T14:49:15;1.33;;;0.80;;
39066;SDS011;24821;51.988;6.020;2023-06-14T14:51:40;2.67;;;0.80;;
39066;SDS011;24821;51.988;6.020;2023-06-14T14:54:06;2.33;;;0.90;;
39066;SDS011;24821;51.988;6.020;2023-06-14T14:56:31;0.77;;;0.75;;
39066;SDS011;24821;51.988;6.020;2023-06-14T14:58:57;1.00;;;0.77;;
39066;SDS011;24821;51.988;6.020;2023-06-14T15:01:23;2.25;;;0.95;;
39066;SDS011;24821;51.988;6.020;2023-06-14T15:03:48;0.95;;;0.85;;
39066;SDS011;24821;51.988;6.020;2023-06-14T15:06:14;1.17;;;1.08;;
39066;SDS011;24821;51.988;6.020;2023-06-14T15:08:40;0.98;;;0.98;;
39066;SDS011;24821;51.988;6.020;2023-06-14T15:11:05;1.13;;;1.00;;